sensor_id;sensor_type;location;lat;lon;timestamp;pressure;altitude;pressure_sealevel;temperature;humidity
11985;BME280;6052;53.246;10.368;2023-03-04T00:02:16;101558.56;;;6.47;100.00
11985;BME280;6052;53.246;10.368;2023-03-04T00:04:45;101554.69;;;6.49;100.00
11985;BME280;6052;53.246;10.368;2023-03-04T00:07:15;101535.44;;;6.54;100.00
11985;BME280;6052;53.246;10.368;2023-03-04T00:09:45;101552.22;;;6.48;100.00
11985;BME280;6052;53.246;10.368;2023-03-04T00:12:14;101550.94;;;6.44;100.00
11985;BME280;6052;53.246;10.368;2023-03-04T00:14:44;101555.94;;;6.53;100.00
11985;BME280;6052;53.246;10.368;2023-03-04T00:17:16;101552.31;;;6.61;100.00
11985;BME280;6052;53.246;10.368;2023-03-04T00:19:46;101548.78;;;6.54;100.00
11985;BME280;6052;53.246;10.368;2023-03-04T00:22:15;101555.72;;;6.69;100.00
11985;BME280;6052;53.246;10.368;2023-03-04T00:24:45;101548.09;;;6.66;100.00
11985;BME280;6052;53.246;10.368;2023-03-04T00:27:14;101546.09;;;6.54;100.00
11985;BME280;6052;53.246;10.368;2023-03-04T00:29:44;101550.88;;;6.58;100.00
11985;BME280;6052;53.246;10.368;2023-03-04T00:32:16;101551.78;;;6.65;100.00
11985;BME280;6052;53.246;10.368;2023-03-04T00:34:48;101544.66;;;6.51;100.00
11985;BME280;6052;53.246;10.368;2023-03-04T00:37:17;101550.06;;;6.58;100.00
11985;BME280;6052;53.246;10.368;2023-03-04T00:39:47;101539.00;;;6.61;100.00
11985;BME280;6052;53.246;10.368;2023-03-04T00:42:16;101547.56;;;6.56;100.00
11985;BME280;6052;53.246;10.368;2023-03-04T00:44:45;101542.56;;;6.68;100.00
11985;BME280;6052;53.246;10.368;2023-03-04T00:47:17;101539.81;;;6.61;100.00
11985;BME280;6052;53.246;10.368;2023-03-04T00:49:47;101552.72;;;6.58;100.00
11985;BME280;6052;53.246;10.368;2023-03-04T00:52:16;101537.50;;;6.52;100.00
11985;BME280;6052;53.246;10.368;2023-03-04T00:54:45;101537.75;;;6.57;100.00
11985;BME280;6052;53.246;10.368;2023-03-04T00:57:15;101542.06;;;6.58;100.00
11985;BME280;6052;53.246;10.368;2023-03-04T00:59:44;101527.69;;;6.80;100.00
11985;BME280;6052;53.246;10.368;2023-03-04T01:02:19;101530.88;;;6.69;100.00
11985;BME280;6052;53.246;10.368;2023-03-04T01:04:48;101526.38;;;6.69;100.00
11985;BME280;6052;53.246;10.368;2023-03-04T01:07:20;101514.69;;;6.70;100.00
11985;BME280;6052;53.246;10.368;2023-03-04T01:09:50;101520.38;;;6.67;100.00
11985;BME280;6052;53.246;10.368;2023-03-04T01:12:19;101519.75;;;6.65;100.00
11985;BME280;6052;53.246;10.368;2023-03-04T01:14:48;101519.25;;;6.55;100.00
11985;BME280;6052;53.246;10.368;2023-03-04T01:17:20;101504.84;;;6.50;100.00
11985;BME280;6052;53.246;10.368;2023-03-04T01:19:52;101509.88;;;6.59;100.00
11985;BME280;6052;53.246;10.368;2023-03-04T01:22:24;101515.13;;;6.53;100.00
11985;BME280;6052;53.246;10.368;2023-03-04T01:24:56;101504.53;;;6.59;100.00
11985;BME280;6052;53.246;10.368;2023-03-04T01:27:26;101501.03;;;6.59;100.00
11985;BME280;6052;53.246;10.368;2023-03-04T01:29:55;101499.53;;;6.77;100.00
11985;BME280;6052;53.246;10.368;2023-03-04T01:32:27;101506.41;;;6.86;100.00
11985;BME280;6052;53.246;10.368;2023-03-04T01:34:56;101509.59;;;6.75;100.00
11985;BME280;6052;53.246;10.368;2023-03-04T01:37:28;101495.16;;;6.70;100.00
11985;BME280;6052;53.246;10.368;2023-03-04T01:39:59;101491.84;;;6.89;100.00
11985;BME280;6052;53.246;10.368;2023-03-04T01:42:33;101488.56;;;6.66;100.00
11985;BME280;6052;53.246;10.368;2023-03-04T01:45:06;101482.31;;;6.80;100.00
11985;BME280;6052;53.246;10.368;2023-03-04T01:47:43;101474.00;;;6.68;100.00
11985;BME280;6052;53.246;10.368;2023-03-04T01:50:20;101472.69;;;6.79;100.00
11985;BME280;6052;53.246;10.368;2023-03-04T01:52:50;101471.09;;;6.84;100.00
11985;BME280;6052;53.246;10.368;2023-03-04T01:55:21;101470.97;;;6.71;100.00
11985;BME280;6052;53.246;10.368;2023-03-04T01:57:52;101464.72;;;6.85;100.00
11985;BME280;6052;53.246;10.368;2023-03-04T02:00:27;101452.75;;;6.75;100.00
11985;BME280;6052;53.246;10.368;2023-03-04T02:03:03;101449.75;;;6.63;100.00
11985;BME280;6052;53.246;10.368;2023-03-04T02:05:34;101444.97;;;6.80;100.00
11985;BME280;6052;53.246;10.368;2023-03-04T02:08:06;101447.66;;;6.80;100.00
11985;BME280;6052;53.246;10.368;2023-03-04T02:10:36;101449.75;;;6.84;100.00
11985;BME280;6052;53.246;10.368;2023-03-04T02:13:06;101432.13;;;6.90;100.00
11985;BME280;6052;53.246;10.368;2023-03-04T02:15:35;101435.38;;;6.85;100.00
11985;BME280;6052;53.246;10.368;2023-03-04T02:18:13;101441.88;;;6.76;100.00
11985;BME280;6052;53.246;10.368;2023-03-04T02:20:50;101437.19;;;6.78;100.00
11985;BME280;6052;53.246;10.368;2023-03-04T02:23:25;101433.44;;;6.73;100.00
11985;BME280;6052;53.246;10.368;2023-03-04T02:26:13;101431.03;;;6.78;100.00
11985;BME280;6052;53.246;10.368;2023-03-04T02:28:43;101419.31;;;6.79;100.00
11985;BME280;6052;53.246;10.368;2023-03-04T02:31:22;101404.72;;;6.75;100.00
11985;BME280;6052;53.246;10.368;2023-03-04T02:33:53;101419.44;;;6.92;100.00
11985;BME280;6052;53.246;10.368;2023-03-04T02:36:24;101413.44;;;6.90;100.00
11985;BME280;6052;53.246;10.368;2023-03-04T02:38:56;101401.97;;;6.89;100.00
11985;BME280;6052;53.246;10.368;2023-03-04T02:41:32;101411.38;;;6.85;100.00
11985;BME280;6052;53.246;10.368;2023-03-04T02:44:02;101399.13;;;6.70;100.00
11985;BME280;6052;53.246;10.368;2023-03-04T02:46:31;101403.31;;;6.79;100.00
11985;BME280;6052;53.246;10.368;2023-03-04T02:49:01;101397.84;;;6.87;100.00
11985;BME280;6052;53.246;10.368;2023-03-04T02:51:30;101386.34;;;6.86;100.00
11985;BME280;6052;53.246;10.368;2023-03-04T02:54:00;101393.53;;;6.86;100.00
11985;BME280;6052;53.246;10.368;2023-03-04T02:56:32;101397.97;;;6.79;100.00
11985;BME280;6052;53.246;10.368;2023-03-04T02:59:02;101393.13;;;6.89;100.00
11985;BME280;6052;53.246;10.368;2023-03-04T03:01:32;101390.25;;;6.90;100.00
11985;BME280;6052;53.246;10.368;2023-03-04T03:04:01;101383.72;;;6.93;100.00
11985;BME280;6052;53.246;10.368;2023-03-04T03:06:31;101383.25;;;6.83;100.00
11985;BME280;6052;53.246;10.368;2023-03-04T03:09:01;101382.84;;;6.86;100.00
11985;BME280;6052;53.246;10.368;2023-03-04T03:11:34;101369.56;;;6.99;100.00
11985;BME280;6052;53.246;10.368;2023-03-04T03:14:05;101374.69;;;6.94;100.00
11985;BME280;6052;53.246;10.368;2023-03-04T03:16:35;101369.75;;;6.91;100.00
11985;BME280;6052;53.246;10.368;2023-03-04T03:19:05;101380.63;;;6.89;100.00
11985;BME280;6052;53.246;10.368;2023-03-04T03:21:34;101371.81;;;6.95;100.00
11985;BME280;6052;53.246;10.368;2023-03-04T03:24:04;101370.50;;;6.85;100.00
11985;BME280;6052;53.246;10.368;2023-03-04T03:26:36;101364.00;;;6.94;100.00
11985;BME280;6052;53.246;10.368;2023-03-04T03:29:06;101365.22;;;6.91;100.00
11985;BME280;6052;53.246;10.368;2023-03-04T03:31:36;101365.16;;;6.78;100.00
11985;BME280;6052;53.246;10.368;2023-03-04T03:34:05;101362.00;;;7.02;100.00
11985;BME280;6052;53.246;10.368;2023-03-04T03:36:34;101364.69;;;7.09;100.00
11985;BME280;6052;53.246;10.368;2023-03-04T03:39:04;101363.19;;;6.93;100.00
11985;BME280;6052;53.246;10.368;2023-03-04T03:41:36;101370.75;;;6.90;100.00
11985;BME280;6052;53.246;10.368;2023-03-04T03:44:06;101365.88;;;6.93;100.00
11985;BME280;6052;53.246;10.368;2023-03-04T03:46:35;101371.94;;;6.81;100.00
11985;BME280;6052;53.246;10.368;2023-03-04T03:49:05;101370.00;;;7.02;100.00
11985;BME280;6052;53.246;10.368;2023-03-04T03:51:34;101375.09;;;6.97;100.00
11985;BME280;6052;53.246;10.368;2023-03-04T03:54:04;101361.94;;;6.89;100.00
11985;BME280;6052;53.246;10.368;2023-03-04T03:56:36;101365.41;;;6.83;100.00
11985;BME280;6052;53.246;10.368;2023-03-04T03:59:05;101365.25;;;6.98;100.00
11985;BME280;6052;53.246;10.368;2023-03-04T04:01:35;101362.97;;;6.95;100.00
11985;BME280;6052;53.246;10.368;2023-03-04T04:04:04;101354.53;;;6.91;100.00
11985;BME280;6052;53.246;10.368;2023-03-04T04:06:34;101358.75;;;7.07;100.00
11985;BME280;6052;53.246;10.368;2023-03-04T04:09:03;101357.69;;;7.01;100.00
11985;BME280;6052;53.246;10.368;2023-03-04T04:11:37;101352.94;;;6.97;100.00
11985;BME280;6052;53.246;10.368;2023-03-04T04:14:20;101356.41;;;6.91;100.00
11985;BME280;6052;53.246;10.368;2023-03-04T04:22:07;101352.31;;;6.95;100.00
11985;BME280;6052;53.246;10.368;2023-03-04T04:24:41;101351.69;;;6.93;100.00
11985;BME280;6052;53.246;10.368;2023-03-04T04:27:15;101347.03;;;7.08;100.00
11985;BME280;6052;53.246;10.368;2023-03-04T04:29:45;101351.31;;;6.96;100.00
11985;BME280;6052;53.246;10.368;2023-03-04T04:32:14;101349.88;;;7.00;100.00
11985;BME280;6052;53.246;10.368;2023-03-04T04:34:44;101340.78;;;6.88;100.00
11985;BME280;6052;53.246;10.368;2023-03-04T04:48:24;101344.38;;;6.74;100.00
11985;BME280;6052;53.246;10.368;2023-03-04T04:53:38;101340.59;;;6.89;100.00
11985;BME280;6052;53.246;10.368;2023-03-04T05:01:26;101333.09;;;6.72;100.00
11985;BME280;6052;53.246;10.368;2023-03-04T05:06:40;101330.72;;;6.83;100.00
11985;BME280;6052;53.246;10.368;2023-03-04T05:09:09;101324.91;;;6.80;100.00
11985;BME280;6052;53.246;10.368;2023-03-04T05:11:38;101318.59;;;6.87;100.00
11985;BME280;6052;53.246;10.368;2023-03-04T05:14:08;101334.59;;;6.87;100.00
11985;BME280;6052;53.246;10.368;2023-03-04T05:16:37;101327.63;;;6.86;100.00
11985;BME280;6052;53.246;10.368;2023-03-04T05:19:07;101337.47;;;6.79;100.00
11985;BME280;6052;53.246;10.368;2023-03-04T05:21:36;101335.88;;;6.91;100.00
11985;BME280;6052;53.246;10.368;2023-03-04T05:24:08;101335.63;;;6.86;100.00
11985;BME280;6052;53.246;10.368;2023-03-04T05:26:38;101325.94;;;6.79;100.00
11985;BME280;6052;53.246;10.368;2023-03-04T05:29:07;101336.06;;;6.90;100.00
11985;BME280;6052;53.246;10.368;2023-03-04T05:31:37;101331.97;;;6.94;100.00
11985;BME280;6052;53.246;10.368;2023-03-04T05:34:06;101341.38;;;6.83;100.00
11985;BME280;6052;53.246;10.368;2023-03-04T05:36:57;101338.81;;;7.03;100.00
11985;BME280;6052;53.246;10.368;2023-03-04T05:39:32;101333.25;;;6.98;100.00
11985;BME280;6052;53.246;10.368;2023-03-04T05:42:02;101333.28;;;7.04;100.00
11985;BME280;6052;53.246;10.368;2023-03-04T05:44:32;101332.84;;;7.07;100.00
11985;BME280;6052;53.246;10.368;2023-03-04T05:47:02;101326.34;;;7.10;100.00
11985;BME280;6052;53.246;10.368;2023-03-04T05:49:32;101329.97;;;6.96;100.00
11985;BME280;6052;53.246;10.368;2023-03-04T05:52:02;101337.31;;;6.94;100.00
11985;BME280;6052;53.246;10.368;2023-03-04T05:54:34;101332.81;;;6.94;100.00
11985;BME280;6052;53.246;10.368;2023-03-04T05:57:03;101335.25;;;6.89;100.00
11985;BME280;6052;53.246;10.368;2023-03-04T05:59:33;101335.06;;;6.91;100.00
11985;BME280;6052;53.246;10.368;2023-03-04T06:02:02;101346.44;;;6.72;100.00
11985;BME280;6052;53.246;10.368;2023-03-04T06:04:32;101344.25;;;6.82;100.00
11985;BME280;6052;53.246;10.368;2023-03-04T06:12:36;101340.41;;;6.91;100.00
11985;BME280;6052;53.246;10.368;2023-03-04T06:15:07;101336.06;;;6.90;100.00
11985;BME280;6052;53.246;10.368;2023-03-04T06:17:41;101343.88;;;6.91;100.00
11985;BME280;6052;53.246;10.368;2023-03-04T06:20:12;101354.78;;;6.96;100.00
11985;BME280;6052;53.246;10.368;2023-03-04T06:22:41;101349.50;;;6.69;100.00
11985;BME280;6052;53.246;10.368;2023-03-04T06:25:11;101343.44;;;6.88;100.00
11985;BME280;6052;53.246;10.368;2023-03-04T06:27:43;101341.25;;;6.64;100.00
11985;BME280;6052;53.246;10.368;2023-03-04T06:30:16;101344.34;;;6.67;100.00
11985;BME280;6052;53.246;10.368;2023-03-04T06:32:46;101343.31;;;6.68;100.00
11985;BME280;6052;53.246;10.368;2023-03-04T06:35:16;101344.34;;;6.67;100.00
11985;BME280;6052;53.246;10.368;2023-03-04T06:37:46;101344.81;;;6.71;100.00
11985;BME280;6052;53.246;10.368;2023-03-04T06:40:15;101341.28;;;6.70;100.00
11985;BME280;6052;53.246;10.368;2023-03-04T06:42:47;101336.19;;;6.41;100.00
11985;BME280;6052;53.246;10.368;2023-03-04T06:45:17;101355.03;;;6.40;100.00
11985;BME280;6052;53.246;10.368;2023-03-04T06:47:46;101341.06;;;6.38;100.00
11985;BME280;6052;53.246;10.368;2023-03-04T06:50:16;101358.03;;;6.30;100.00
11985;BME280;6052;53.246;10.368;2023-03-04T06:52:46;101344.91;;;6.29;100.00
11985;BME280;6052;53.246;10.368;2023-03-04T06:55:16;101349.00;;;6.59;100.00
11985;BME280;6052;53.246;10.368;2023-03-04T06:57:49;101354.88;;;6.48;100.00
11985;BME280;6052;53.246;10.368;2023-03-04T07:00:20;101351.53;;;6.67;100.00
11985;BME280;6052;53.246;10.368;2023-03-04T07:02:51;101353.78;;;6.70;100.00
11985;BME280;6052;53.246;10.368;2023-03-04T07:05:20;101355.19;;;6.59;100.00
11985;BME280;6052;53.246;10.368;2023-03-04T07:07:50;101361.50;;;6.58;100.00
11985;BME280;6052;53.246;10.368;2023-03-04T07:10:20;101356.13;;;6.79;100.00
11985;BME280;6052;53.246;10.368;2023-03-04T07:13:04;101351.69;;;6.93;100.00
11985;BME280;6052;53.246;10.368;2023-03-04T07:18:09;101349.16;;;6.85;100.00
11985;BME280;6052;53.246;10.368;2023-03-04T07:20:39;101347.94;;;6.87;100.00
11985;BME280;6052;53.246;10.368;2023-03-04T07:23:09;101353.09;;;6.89;100.00
11985;BME280;6052;53.246;10.368;2023-03-04T07:25:38;101349.72;;;6.74;100.00
11985;BME280;6052;53.246;10.368;2023-03-04T07:30:53;101356.66;;;7.02;100.00
11985;BME280;6052;53.246;10.368;2023-03-04T07:33:22;101356.97;;;6.86;100.00
11985;BME280;6052;53.246;10.368;2023-03-04T07:35:57;101361.69;;;6.50;100.00
11985;BME280;6052;53.246;10.368;2023-03-04T07:38:27;101362.53;;;6.57;100.00
11985;BME280;6052;53.246;10.368;2023-03-04T07:40:56;101355.66;;;6.69;100.00
11985;BME280;6052;53.246;10.368;2023-03-04T07:43:26;101364.88;;;6.67;100.00
11985;BME280;6052;53.246;10.368;2023-03-04T07:46:01;101364.31;;;6.78;100.00
11985;BME280;6052;53.246;10.368;2023-03-04T07:48:31;101360.41;;;6.46;100.00
11985;BME280;6052;53.246;10.368;2023-03-04T07:51:06;101351.69;;;6.59;100.00
11985;BME280;6052;53.246;10.368;2023-03-04T07:53:37;101361.78;;;6.70;100.00
11985;BME280;6052;53.246;10.368;2023-03-04T07:56:11;101352.28;;;6.54;99.76
11985;BME280;6052;53.246;10.368;2023-03-04T07:58:40;101352.28;;;6.54;99.40
11985;BME280;6052;53.246;10.368;2023-03-04T08:01:14;101361.69;;;6.50;99.34
11985;BME280;6052;53.246;10.368;2023-03-04T08:03:44;101356.47;;;6.42;98.78
11985;BME280;6052;53.246;10.368;2023-03-04T08:06:15;101369.75;;;6.36;98.53
11985;BME280;6052;53.246;10.368;2023-03-04T08:08:45;101360.22;;;6.48;98.77
11985;BME280;6052;53.246;10.368;2023-03-04T08:11:17;101371.84;;;6.40;98.06
11985;BME280;6052;53.246;10.368;2023-03-04T08:13:48;101373.44;;;6.35;97.40
11985;BME280;6052;53.246;10.368;2023-03-04T08:16:23;101371.66;;;6.42;96.96
11985;BME280;6052;53.246;10.368;2023-03-04T08:18:53;101373.84;;;6.32;96.76
11985;BME280;6052;53.246;10.368;2023-03-04T08:21:25;101376.69;;;6.30;96.29
11985;BME280;6052;53.246;10.368;2023-03-04T08:23:56;101382.28;;;6.35;95.95
11985;BME280;6052;53.246;10.368;2023-03-04T08:26:30;101382.34;;;6.42;95.75
11985;BME280;6052;53.246;10.368;2023-03-04T08:29:01;101375.97;;;6.43;96.00
11985;BME280;6052;53.246;10.368;2023-03-04T08:31:34;101384.78;;;6.43;95.55
11985;BME280;6052;53.246;10.368;2023-03-04T08:34:05;101377.91;;;6.28;96.41
11985;BME280;6052;53.246;10.368;2023-03-04T08:36:36;101382.38;;;6.48;96.22
11985;BME280;6052;53.246;10.368;2023-03-04T08:39:05;101383.91;;;6.64;95.85
11985;BME280;6052;53.246;10.368;2023-03-04T08:41:35;101382.09;;;6.64;95.74
11985;BME280;6052;53.246;10.368;2023-03-04T08:44:04;101377.28;;;6.53;95.14
11985;BME280;6052;53.246;10.368;2023-03-04T08:46:40;101380.66;;;6.41;95.40
11985;BME280;6052;53.246;10.368;2023-03-04T08:49:10;101388.28;;;6.44;95.80
11985;BME280;6052;53.246;10.368;2023-03-04T08:51:40;101388.03;;;6.39;95.25
11985;BME280;6052;53.246;10.368;2023-03-04T08:54:10;101393.56;;;6.37;95.04
11985;BME280;6052;53.246;10.368;2023-03-04T08:56:40;101380.59;;;6.55;94.69
11985;BME280;6052;53.246;10.368;2023-03-04T08:59:09;101382.28;;;6.35;95.02
11985;BME280;6052;53.246;10.368;2023-03-04T09:01:41;101387.31;;;6.24;95.05
11985;BME280;6052;53.246;10.368;2023-03-04T09:04:11;101399.44;;;6.54;94.85
11985;BME280;6052;53.246;10.368;2023-03-04T09:06:41;101392.94;;;6.35;94.90
11985;BME280;6052;53.246;10.368;2023-03-04T09:09:10;101387.38;;;6.30;95.07
11985;BME280;6052;53.246;10.368;2023-03-04T09:11:39;101386.22;;;6.39;94.28
11985;BME280;6052;53.246;10.368;2023-03-04T09:14:09;101387.84;;;6.40;93.46
11985;BME280;6052;53.246;10.368;2023-03-04T09:16:38;101381.56;;;6.27;93.91
11985;BME280;6052;53.246;10.368;2023-03-04T09:19:10;101381.19;;;6.30;93.46
11985;BME280;6052;53.246;10.368;2023-03-04T09:21:40;101381.13;;;6.23;93.52
11985;BME280;6052;53.246;10.368;2023-03-04T09:24:09;101384.81;;;6.22;92.98
11985;BME280;6052;53.246;10.368;2023-03-04T09:26:38;101381.66;;;6.12;92.89
11985;BME280;6052;53.246;10.368;2023-03-04T09:29:09;101390.41;;;6.27;93.12
11985;BME280;6052;53.246;10.368;2023-03-04T09:31:38;101388.56;;;6.28;92.90
11985;BME280;6052;53.246;10.368;2023-03-04T09:34:10;101397.38;;;6.28;92.76
11985;BME280;6052;53.246;10.368;2023-03-04T09:36:39;101387.19;;;6.32;91.92
11985;BME280;6052;53.246;10.368;2023-03-04T09:39:09;101394.72;;;6.28;92.18
11985;BME280;6052;53.246;10.368;2023-03-04T09:41:40;101394.59;;;6.64;91.74
11985;BME280;6052;53.246;10.368;2023-03-04T09:44:19;101389.44;;;6.35;91.38
11985;BME280;6052;53.246;10.368;2023-03-04T09:46:50;101392.09;;;6.35;92.11
11985;BME280;6052;53.246;10.368;2023-03-04T09:49:24;101394.25;;;6.46;91.58
11985;BME280;6052;53.246;10.368;2023-03-04T09:52:13;101398.41;;;6.27;92.01
11985;BME280;6052;53.246;10.368;2023-03-04T09:54:57;101399.06;;;6.36;92.23
11985;BME280;6052;53.246;10.368;2023-03-04T09:57:41;101401.72;;;6.57;92.01
11985;BME280;6052;53.246;10.368;2023-03-04T10:00:14;101408.34;;;6.40;92.28
11985;BME280;6052;53.246;10.368;2023-03-04T10:02:57;101395.47;;;6.71;91.68
11985;BME280;6052;53.246;10.368;2023-03-04T10:05:38;101410.41;;;6.38;91.45
11985;BME280;6052;53.246;10.368;2023-03-04T10:08:23;101398.56;;;6.47;90.40
11985;BME280;6052;53.246;10.368;2023-03-04T10:10:57;101397.56;;;6.48;91.20
11985;BME280;6052;53.246;10.368;2023-03-04T10:13:33;101392.34;;;6.40;90.44
11985;BME280;6052;53.246;10.368;2023-03-04T10:16:08;101399.66;;;6.31;90.74
11985;BME280;6052;53.246;10.368;2023-03-04T10:18:44;101396.16;;;6.52;90.62
11985;BME280;6052;53.246;10.368;2023-03-04T10:21:22;101400.59;;;6.45;90.31
11985;BME280;6052;53.246;10.368;2023-03-04T10:23:55;101409.75;;;6.36;90.30
11985;BME280;6052;53.246;10.368;2023-03-04T10:26:28;101398.13;;;6.43;89.99
11985;BME280;6052;53.246;10.368;2023-03-04T10:28:58;101402.81;;;6.41;90.24
11985;BME280;6052;53.246;10.368;2023-03-04T10:31:34;101399.53;;;6.39;89.97
11985;BME280;6052;53.246;10.368;2023-03-04T10:34:05;101393.63;;;6.44;90.00
11985;BME280;6052;53.246;10.368;2023-03-04T10:36:49;101392.34;;;6.40;89.60
11985;BME280;6052;53.246;10.368;2023-03-04T10:39:25;101399.78;;;6.44;89.21
11985;BME280;6052;53.246;10.368;2023-03-04T10:41:58;101381.84;;;6.59;88.91
11985;BME280;6052;53.246;10.368;2023-03-04T10:44:29;101396.78;;;6.54;88.37
11985;BME280;6052;53.246;10.368;2023-03-04T10:47:00;101400.72;;;6.58;88.36
11985;BME280;6052;53.246;10.368;2023-03-04T10:49:30;101396.34;;;6.50;88.59
11985;BME280;6052;53.246;10.368;2023-03-04T10:52:14;101386.59;;;6.36;88.29
11985;BME280;6052;53.246;10.368;2023-03-04T10:54:48;101372.59;;;6.55;87.98
11985;BME280;6052;53.246;10.368;2023-03-04T10:57:19;101382.72;;;6.66;87.71
11985;BME280;6052;53.246;10.368;2023-03-04T10:59:54;101384.75;;;6.64;87.48
11985;BME280;6052;53.246;10.368;2023-03-04T11:02:26;101402.88;;;6.48;87.36
11985;BME280;6052;53.246;10.368;2023-03-04T11:05:09;101386.78;;;6.62;87.15
11985;BME280;6052;53.246;10.368;2023-03-04T11:07:48;101371.91;;;6.47;86.24
11985;BME280;6052;53.246;10.368;2023-03-04T11:10:24;101385.63;;;6.44;86.24
11985;BME280;6052;53.246;10.368;2023-03-04T11:12:59;101379.25;;;6.45;86.17
11985;BME280;6052;53.246;10.368;2023-03-04T11:15:47;101395.44;;;6.43;86.15
11985;BME280;6052;53.246;10.368;2023-03-04T11:18:19;101392.91;;;6.56;86.34
11985;BME280;6052;53.246;10.368;2023-03-04T11:20:53;101384.53;;;6.59;86.21
11985;BME280;6052;53.246;10.368;2023-03-04T11:23:32;101385.09;;;6.55;86.23
11985;BME280;6052;53.246;10.368;2023-03-04T11:26:08;101381.06;;;6.65;86.83
11985;BME280;6052;53.246;10.368;2023-03-04T11:28:42;101380.72;;;6.75;86.82
11985;BME280;6052;53.246;10.368;2023-03-04T11:31:15;101381.63;;;6.88;86.19
11985;BME280;6052;53.246;10.368;2023-03-04T11:33:50;101381.63;;;6.88;86.48
11985;BME280;6052;53.246;10.368;2023-03-04T11:36:28;101372.66;;;6.68;86.66
11985;BME280;6052;53.246;10.368;2023-03-04T11:39:13;101378.34;;;6.59;87.01
11985;BME280;6052;53.246;10.368;2023-03-04T11:41:50;101382.75;;;6.73;87.22
11985;BME280;6052;53.246;10.368;2023-03-04T11:44:21;101385.66;;;6.78;86.63
11985;BME280;6052;53.246;10.368;2023-03-04T11:46:57;101372.28;;;6.71;86.51
11985;BME280;6052;53.246;10.368;2023-03-04T11:49:54;101372.22;;;6.65;85.54
11985;BME280;6052;53.246;10.368;2023-03-04T11:55:40;101368.03;;;6.77;84.35
11985;BME280;6052;53.246;10.368;2023-03-04T11:58:31;101375.84;;;6.78;84.54
11985;BME280;6052;53.246;10.368;2023-03-04T12:01:07;101362.16;;;6.60;83.57
11985;BME280;6052;53.246;10.368;2023-03-04T12:04:02;101369.97;;;6.62;82.99
11985;BME280;6052;53.246;10.368;2023-03-04T12:06:43;101362.59;;;6.64;82.85
11985;BME280;6052;53.246;10.368;2023-03-04T12:09:24;101373.97;;;6.79;82.76
11985;BME280;6052;53.246;10.368;2023-03-04T12:12:17;101363.47;;;6.71;82.82
11985;BME280;6052;53.246;10.368;2023-03-04T12:14:58;101358.31;;;6.69;82.55
11985;BME280;6052;53.246;10.368;2023-03-04T12:17:42;101354.91;;;6.82;82.39
11985;BME280;6052;53.246;10.368;2023-03-04T12:20:32;101353.75;;;6.63;82.64
11985;BME280;6052;53.246;10.368;2023-03-04T12:23:11;101353.56;;;6.65;82.58
11985;BME280;6052;53.246;10.368;2023-03-04T12:25:49;101355.72;;;6.76;82.46
11985;BME280;6052;53.246;10.368;2023-03-04T12:28:39;101352.88;;;6.84;82.27
11985;BME280;6052;53.246;10.368;2023-03-04T12:31:35;101350.13;;;6.71;82.38
11985;BME280;6052;53.246;10.368;2023-03-04T12:37:29;101346.34;;;6.93;82.20
11985;BME280;6052;53.246;10.368;2023-03-04T12:40:15;101336.47;;;6.87;82.66
11985;BME280;6052;53.246;10.368;2023-03-04T12:42:59;101340.00;;;6.94;82.83
11985;BME280;6052;53.246;10.368;2023-03-04T12:45:40;101332.22;;;6.99;82.82
11985;BME280;6052;53.246;10.368;2023-03-04T12:48:22;101343.53;;;7.07;82.48
11985;BME280;6052;53.246;10.368;2023-03-04T12:51:04;101329.72;;;6.91;83.01
11985;BME280;6052;53.246;10.368;2023-03-04T12:53:42;101334.50;;;7.02;82.77
11985;BME280;6052;53.246;10.368;2023-03-04T12:56:21;101327.66;;;6.93;83.37
11985;BME280;6052;53.246;10.368;2023-03-04T12:58:53;101328.75;;;6.98;83.22
11985;BME280;6052;53.246;10.368;2023-03-04T13:01:30;101322.00;;;7.09;82.95
11985;BME280;6052;53.246;10.368;2023-03-04T13:04:04;101329.19;;;7.08;83.62
11985;BME280;6052;53.246;10.368;2023-03-04T13:06:41;101315.34;;;6.92;84.55
11985;BME280;6052;53.246;10.368;2023-03-04T13:09:18;101318.72;;;7.07;84.09
11985;BME280;6052;53.246;10.368;2023-03-04T13:11:55;101315.31;;;6.85;84.48
11985;BME280;6052;53.246;10.368;2023-03-04T13:14:31;101318.25;;;6.97;84.22
11985;BME280;6052;53.246;10.368;2023-03-04T13:17:35;101316.19;;;6.99;84.38
11985;BME280;6052;53.246;10.368;2023-03-04T13:20:22;101305.16;;;7.08;84.32
11985;BME280;6052;53.246;10.368;2023-03-04T13:22:54;101321.59;;;7.12;84.23
11985;BME280;6052;53.246;10.368;2023-03-04T13:25:30;101311.59;;;7.27;84.33
11985;BME280;6052;53.246;10.368;2023-03-04T13:28:20;101311.53;;;7.14;84.56
11985;BME280;6052;53.246;10.368;2023-03-04T13:31:10;101309.06;;;7.06;83.93
11985;BME280;6052;53.246;10.368;2023-03-04T13:34:04;101313.00;;;7.23;83.20
11985;BME280;6052;53.246;10.368;2023-03-04T13:36:55;101311.50;;;7.07;83.97
11985;BME280;6052;53.246;10.368;2023-03-04T13:39:35;101315.44;;;7.11;84.06
11985;BME280;6052;53.246;10.368;2023-03-04T13:45:28;101309.34;;;7.30;83.69
11985;BME280;6052;53.246;10.368;2023-03-04T13:47:58;101310.75;;;7.26;83.39
11985;BME280;6052;53.246;10.368;2023-03-04T13:50:33;101309.13;;;7.25;83.67
11985;BME280;6052;53.246;10.368;2023-03-04T13:56:31;101306.66;;;7.17;83.22
11985;BME280;6052;53.246;10.368;2023-03-04T13:59:10;101308.72;;;7.22;83.14
11985;BME280;6052;53.246;10.368;2023-03-04T14:04:35;101302.16;;;7.31;81.99
11985;BME280;6052;53.246;10.368;2023-03-04T14:07:26;101298.38;;;7.06;81.67
11985;BME280;6052;53.246;10.368;2023-03-04T14:09:58;101304.94;;;7.03;81.36
11985;BME280;6052;53.246;10.368;2023-03-04T14:12:32;101306.41;;;7.06;80.87
11985;BME280;6052;53.246;10.368;2023-03-04T14:15:04;101308.84;;;7.07;79.94
11985;BME280;6052;53.246;10.368;2023-03-04T14:17:35;101306.97;;;7.01;79.45
11985;BME280;6052;53.246;10.368;2023-03-04T14:20:22;101315.03;;;7.14;78.78
11985;BME280;6052;53.246;10.368;2023-03-04T14:22:56;101313.78;;;7.10;78.35